sensor_id;sensor_type;location;lat;lon;timestamp;temperature;humidity
68139;DHT22;54940;50.842;4.410;2022-08-21T00:02:17;19.10;94.60
68139;DHT22;54940;50.842;4.410;2022-08-21T00:04:44;19.00;94.80
68139;DHT22;54940;50.842;4.410;2022-08-21T00:07:10;18.90;95.20
68139;DHT22;54940;50.842;4.410;2022-08-21T00:09:36;18.80;95.10
68139;DHT22;54940;50.842;4.410;2022-08-21T00:12:02;18.80;95.50
68139;DHT22;54940;50.842;4.410;2022-08-21T00:14:28;18.80;95.50
68139;DHT22;54940;50.842;4.410;2022-08-21T00:16:54;18.80;95.20
68139;DHT22;54940;50.842;4.410;2022-08-21T00:19:19;18.70;95.90
68139;DHT22;54940;50.842;4.410;2022-08-21T00:21:46;18.60;96.00
68139;DHT22;54940;50.842;4.410;2022-08-21T00:24:12;18.60;95.80
68139;DHT22;54940;50.842;4.410;2022-08-21T00:26:38;18.50;96.00
68139;DHT22;54940;50.842;4.410;2022-08-21T00:29:04;18.50;96.30
68139;DHT22;54940;50.842;4.410;2022-08-21T00:31:30;18.50;96.20
68139;DHT22;54940;50.842;4.410;2022-08-21T00:33:55;18.40;96.60
68139;DHT22;54940;50.842;4.410;2022-08-21T00:36:21;18.30;97.10
68139;DHT22;54940;50.842;4.410;2022-08-21T00:38:46;18.40;96.90
68139;DHT22;54940;50.842;4.410;2022-08-21T00:43:56;18.50;97.10
68139;DHT22;54940;50.842;4.410;2022-08-21T00:46:22;18.30;97.20
68139;DHT22;54940;50.842;4.410;2022-08-21T00:48:49;18.20;97.20
68139;DHT22;54940;50.842;4.410;2022-08-21T00:51:18;18.20;97.10
68139;DHT22;54940;50.842;4.410;2022-08-21T00:53:50;18.20;97.60
68139;DHT22;54940;50.842;4.410;2022-08-21T00:56:19;18.20;98.00
68139;DHT22;54940;50.842;4.410;2022-08-21T00:58:45;18.10;97.80
68139;DHT22;54940;50.842;4.410;2022-08-21T01:01:11;18.10;97.50
68139;DHT22;54940;50.842;4.410;2022-08-21T01:03:37;18.10;97.80
68139;DHT22;54940;50.842;4.410;2022-08-21T01:06:04;18.20;97.70
68139;DHT22;54940;50.842;4.410;2022-08-21T01:08:31;18.10;97.50
68139;DHT22;54940;50.842;4.410;2022-08-21T01:10:57;18.20;97.70
68139;DHT22;54940;50.842;4.410;2022-08-21T01:13:25;18.20;97.70
68139;DHT22;54940;50.842;4.410;2022-08-21T01:15:54;18.00;97.80
68139;DHT22;54940;50.842;4.410;2022-08-21T01:18:21;18.00;97.70
68139;DHT22;54940;50.842;4.410;2022-08-21T01:21:09;18.10;97.80
68139;DHT22;54940;50.842;4.410;2022-08-21T01:23:37;18.30;97.90
68139;DHT22;54940;50.842;4.410;2022-08-21T01:26:04;18.30;97.90
68139;DHT22;54940;50.842;4.410;2022-08-21T01:28:34;18.30;97.80
68139;DHT22;54940;50.842;4.410;2022-08-21T01:31:01;18.40;97.70
68139;DHT22;54940;50.842;4.410;2022-08-21T01:33:28;18.40;97.50
68139;DHT22;54940;50.842;4.410;2022-08-21T01:35:53;18.40;97.50
68139;DHT22;54940;50.842;4.410;2022-08-21T01:38:19;18.40;98.00
68139;DHT22;54940;50.842;4.410;2022-08-21T01:40:45;18.30;97.90
68139;DHT22;54940;50.842;4.410;2022-08-21T01:43:11;18.40;97.60
68139;DHT22;54940;50.842;4.410;2022-08-21T01:45:37;18.40;98.00
68139;DHT22;54940;50.842;4.410;2022-08-21T01:48:03;18.40;97.80
68139;DHT22;54940;50.842;4.410;2022-08-21T01:50:29;18.40;97.70
68139;DHT22;54940;50.842;4.410;2022-08-21T01:52:55;18.50;97.70
68139;DHT22;54940;50.842;4.410;2022-08-21T01:55:21;18.50;97.50
68139;DHT22;54940;50.842;4.410;2022-08-21T01:57:48;18.40;97.60
68139;DHT22;54940;50.842;4.410;2022-08-21T02:00:16;18.50;97.60
68139;DHT22;54940;50.842;4.410;2022-08-21T02:02:43;18.40;97.60
68139;DHT22;54940;50.842;4.410;2022-08-21T02:05:10;18.40;97.70
68139;DHT22;54940;50.842;4.410;2022-08-21T02:07:42;18.40;97.50
68139;DHT22;54940;50.842;4.410;2022-08-21T02:10:11;18.40;97.80
68139;DHT22;54940;50.842;4.410;2022-08-21T02:12:37;18.40;98.00
68139;DHT22;54940;50.842;4.410;2022-08-21T02:15:05;18.30;98.00
68139;DHT22;54940;50.842;4.410;2022-08-21T02:17:43;18.30;98.30
68139;DHT22;54940;50.842;4.410;2022-08-21T02:20:11;18.30;98.30
68139;DHT22;54940;50.842;4.410;2022-08-21T02:22:37;18.30;97.90
68139;DHT22;54940;50.842;4.410;2022-08-21T02:25:04;18.30;98.20
68139;DHT22;54940;50.842;4.410;2022-08-21T02:27:38;18.40;98.10
68139;DHT22;54940;50.842;4.410;2022-08-21T02:30:04;18.30;98.10
68139;DHT22;54940;50.842;4.410;2022-08-21T02:32:30;18.30;98.20
68139;DHT22;54940;50.842;4.410;2022-08-21T02:34:56;18.30;98.50
68139;DHT22;54940;50.842;4.410;2022-08-21T02:37:22;18.40;98.20
68139;DHT22;54940;50.842;4.410;2022-08-21T02:39:48;18.20;98.80
68139;DHT22;54940;50.842;4.410;2022-08-21T02:42:15;18.10;99.00
68139;DHT22;54940;50.842;4.410;2022-08-21T02:44:41;18.00;99.00
68139;DHT22;54940;50.842;4.410;2022-08-21T02:47:06;18.00;99.10
68139;DHT22;54940;50.842;4.410;2022-08-21T02:49:32;17.90;99.20
68139;DHT22;54940;50.842;4.410;2022-08-21T02:51:58;17.80;99.30
68139;DHT22;54940;50.842;4.410;2022-08-21T02:54:23;17.80;99.40
68139;DHT22;54940;50.842;4.410;2022-08-21T02:56:49;17.80;99.60
68139;DHT22;54940;50.842;4.410;2022-08-21T02:59:15;17.80;99.60
68139;DHT22;54940;50.842;4.410;2022-08-21T03:01:40;17.90;99.40
68139;DHT22;54940;50.842;4.410;2022-08-21T03:04:06;18.00;99.20
68139;DHT22;54940;50.842;4.410;2022-08-21T03:06:32;18.00;99.40
68139;DHT22;54940;50.842;4.410;2022-08-21T03:08:59;18.00;99.10
68139;DHT22;54940;50.842;4.410;2022-08-21T03:11:24;18.00;99.30
68139;DHT22;54940;50.842;4.410;2022-08-21T03:13:52;18.00;99.20
68139;DHT22;54940;50.842;4.410;2022-08-21T03:16:17;17.90;99.10
68139;DHT22;54940;50.842;4.410;2022-08-21T03:18:44;17.90;99.60
68139;DHT22;54940;50.842;4.410;2022-08-21T03:21:10;17.90;99.60
68139;DHT22;54940;50.842;4.410;2022-08-21T03:23:38;17.90;99.90
68139;DHT22;54940;50.842;4.410;2022-08-21T03:26:05;17.80;99.70
68139;DHT22;54940;50.842;4.410;2022-08-21T03:28:31;17.80;99.90
68139;DHT22;54940;50.842;4.410;2022-08-21T03:30:57;17.80;99.80
68139;DHT22;54940;50.842;4.410;2022-08-21T03:33:23;17.70;99.80
68139;DHT22;54940;50.842;4.410;2022-08-21T03:35:59;17.70;99.80
68139;DHT22;54940;50.842;4.410;2022-08-21T03:38:27;17.70;99.90
68139;DHT22;54940;50.842;4.410;2022-08-21T03:40:53;17.80;99.90
68139;DHT22;54940;50.842;4.410;2022-08-21T03:43:19;17.70;99.90
68139;DHT22;54940;50.842;4.410;2022-08-21T03:45:45;17.70;99.90
68139;DHT22;54940;50.842;4.410;2022-08-21T03:48:11;17.70;99.90
68139;DHT22;54940;50.842;4.410;2022-08-21T03:50:40;17.60;99.90
68139;DHT22;54940;50.842;4.410;2022-08-21T03:53:05;17.50;99.90
68139;DHT22;54940;50.842;4.410;2022-08-21T03:55:31;17.40;99.90
68139;DHT22;54940;50.842;4.410;2022-08-21T03:57:57;17.50;99.90
68139;DHT22;54940;50.842;4.410;2022-08-21T04:00:23;17.30;99.90
68139;DHT22;54940;50.842;4.410;2022-08-21T04:02:49;17.20;99.90
68139;DHT22;54940;50.842;4.410;2022-08-21T04:05:17;17.40;99.90
68139;DHT22;54940;50.842;4.410;2022-08-21T04:07:53;17.40;99.90
68139;DHT22;54940;50.842;4.410;2022-08-21T04:10:19;17.30;99.90
68139;DHT22;54940;50.842;4.410;2022-08-21T04:12:45;17.40;99.90
68139;DHT22;54940;50.842;4.410;2022-08-21T04:15:10;17.40;99.90
68139;DHT22;54940;50.842;4.410;2022-08-21T04:17:36;17.40;99.90
68139;DHT22;54940;50.842;4.410;2022-08-21T04:20:02;17.50;99.90
68139;DHT22;54940;50.842;4.410;2022-08-21T04:22:28;17.60;99.90
68139;DHT22;54940;50.842;4.410;2022-08-21T04:24:53;17.60;99.90
68139;DHT22;54940;50.842;4.410;2022-08-21T04:27:19;17.40;99.90
68139;DHT22;54940;50.842;4.410;2022-08-21T04:29:45;17.50;99.90
68139;DHT22;54940;50.842;4.410;2022-08-21T04:32:10;17.50;99.90
68139;DHT22;54940;50.842;4.410;2022-08-21T04:34:36;17.60;99.90
68139;DHT22;54940;50.842;4.410;2022-08-21T04:37:02;17.50;99.90
68139;DHT22;54940;50.842;4.410;2022-08-21T04:39:27;17.50;99.90
68139;DHT22;54940;50.842;4.410;2022-08-21T04:41:53;17.40;99.90
68139;DHT22;54940;50.842;4.410;2022-08-21T04:44:19;17.40;99.90
68139;DHT22;54940;50.842;4.410;2022-08-21T04:46:44;17.40;99.90
68139;DHT22;54940;50.842;4.410;2022-08-21T04:49:10;17.40;99.90
68139;DHT22;54940;50.842;4.410;2022-08-21T04:51:36;17.40;99.90
68139;DHT22;54940;50.842;4.410;2022-08-21T04:54:10;17.40;99.90
68139;DHT22;54940;50.842;4.410;2022-08-21T04:56:45;17.40;99.90
68139;DHT22;54940;50.842;4.410;2022-08-21T04:59:19;17.30;99.90
68139;DHT22;54940;50.842;4.410;2022-08-21T05:01:46;17.30;99.90
68139;DHT22;54940;50.842;4.410;2022-08-21T05:04:15;17.40;99.90
68139;DHT22;54940;50.842;4.410;2022-08-21T05:06:44;17.40;99.90
68139;DHT22;54940;50.842;4.410;2022-08-21T05:09:14;17.30;99.90
68139;DHT22;54940;50.842;4.410;2022-08-21T05:11:40;17.40;99.90
68139;DHT22;54940;50.842;4.410;2022-08-21T05:14:08;17.40;99.90
68139;DHT22;54940;50.842;4.410;2022-08-21T05:16:34;17.40;99.90
68139;DHT22;54940;50.842;4.410;2022-08-21T05:18:59;17.30;99.90
68139;DHT22;54940;50.842;4.410;2022-08-21T05:21:25;17.10;99.90
68139;DHT22;54940;50.842;4.410;2022-08-21T05:23:50;17.10;99.90
68139;DHT22;54940;50.842;4.410;2022-08-21T05:26:16;17.20;99.90
68139;DHT22;54940;50.842;4.410;2022-08-21T05:28:42;17.80;99.90
68139;DHT22;54940;50.842;4.410;2022-08-21T05:31:07;18.20;99.90
68139;DHT22;54940;50.842;4.410;2022-08-21T05:33:33;18.90;99.60
68139;DHT22;54940;50.842;4.410;2022-08-21T05:35:59;19.50;98.40
68139;DHT22;54940;50.842;4.410;2022-08-21T05:38:26;19.90;97.10
68139;DHT22;54940;50.842;4.410;2022-08-21T05:40:53;20.00;96.70
68139;DHT22;54940;50.842;4.410;2022-08-21T05:43:19;19.90;96.50
68139;DHT22;54940;50.842;4.410;2022-08-21T05:45:45;20.00;97.30
68139;DHT22;54940;50.842;4.410;2022-08-21T05:48:18;20.20;97.00
68139;DHT22;54940;50.842;4.410;2022-08-21T05:50:46;20.30;96.40
68139;DHT22;54940;50.842;4.410;2022-08-21T05:53:12;20.40;96.00
68139;DHT22;54940;50.842;4.410;2022-08-21T05:55:39;20.60;95.10
68139;DHT22;54940;50.842;4.410;2022-08-21T05:58:06;20.80;95.30
68139;DHT22;54940;50.842;4.410;2022-08-21T06:00:39;21.00;94.90
68139;DHT22;54940;50.842;4.410;2022-08-21T06:03:11;21.30;94.00
68139;DHT22;54940;50.842;4.410;2022-08-21T06:05:36;21.40;94.10
68139;DHT22;54940;50.842;4.410;2022-08-21T06:08:03;21.60;94.00
68139;DHT22;54940;50.842;4.410;2022-08-21T06:10:29;21.80;94.10
68139;DHT22;54940;50.842;4.410;2022-08-21T06:12:55;22.20;93.80
68139;DHT22;54940;50.842;4.410;2022-08-21T06:15:20;22.30;92.50
68139;DHT22;54940;50.842;4.410;2022-08-21T06:17:46;22.70;91.80
68139;DHT22;54940;50.842;4.410;2022-08-21T06:20:12;22.90;91.80
68139;DHT22;54940;50.842;4.410;2022-08-21T06:22:37;23.20;91.50
68139;DHT22;54940;50.842;4.410;2022-08-21T06:25:03;23.20;91.60
68139;DHT22;54940;50.842;4.410;2022-08-21T06:27:29;23.00;91.00
68139;DHT22;54940;50.842;4.410;2022-08-21T06:29:55;22.70;91.20
68139;DHT22;54940;50.842;4.410;2022-08-21T06:32:22;22.70;92.10
68139;DHT22;54940;50.842;4.410;2022-08-21T06:34:48;22.80;92.10
68139;DHT22;54940;50.842;4.410;2022-08-21T06:37:14;23.10;91.10
68139;DHT22;54940;50.842;4.410;2022-08-21T06:39:40;23.30;90.10
68139;DHT22;54940;50.842;4.410;2022-08-21T06:42:05;23.10;91.80
68139;DHT22;54940;50.842;4.410;2022-08-21T06:44:31;23.30;90.20
68139;DHT22;54940;50.842;4.410;2022-08-21T06:46:57;23.30;90.50
68139;DHT22;54940;50.842;4.410;2022-08-21T06:49:22;23.50;90.50
68139;DHT22;54940;50.842;4.410;2022-08-21T06:51:48;23.40;91.40
68139;DHT22;54940;50.842;4.410;2022-08-21T06:54:14;23.60;90.70
68139;DHT22;54940;50.842;4.410;2022-08-21T06:56:39;23.50;90.70
68139;DHT22;54940;50.842;4.410;2022-08-21T06:59:05;23.50;90.80
68139;DHT22;54940;50.842;4.410;2022-08-21T07:01:31;23.90;90.20
68139;DHT22;54940;50.842;4.410;2022-08-21T07:03:57;24.00;88.30
68139;DHT22;54940;50.842;4.410;2022-08-21T07:06:23;24.50;90.50
68139;DHT22;54940;50.842;4.410;2022-08-21T07:08:48;24.10;88.80
68139;DHT22;54940;50.842;4.410;2022-08-21T07:11:19;24.10;90.10
68139;DHT22;54940;50.842;4.410;2022-08-21T07:13:45;24.30;90.50
68139;DHT22;54940;50.842;4.410;2022-08-21T07:16:11;24.50;89.80
68139;DHT22;54940;50.842;4.410;2022-08-21T07:18:37;24.60;90.60
68139;DHT22;54940;50.842;4.410;2022-08-21T07:21:04;24.50;87.80
68139;DHT22;54940;50.842;4.410;2022-08-21T07:23:34;24.60;90.60
68139;DHT22;54940;50.842;4.410;2022-08-21T07:26:00;24.80;87.40
68139;DHT22;54940;50.842;4.410;2022-08-21T07:28:27;24.80;91.30
68139;DHT22;54940;50.842;4.410;2022-08-21T07:30:55;24.90;91.50
68139;DHT22;54940;50.842;4.410;2022-08-21T07:33:22;25.10;89.50
68139;DHT22;54940;50.842;4.410;2022-08-21T07:35:48;24.90;88.70
68139;DHT22;54940;50.842;4.410;2022-08-21T07:38:14;24.80;90.50
68139;DHT22;54940;50.842;4.410;2022-08-21T07:40:39;24.40;89.60
68139;DHT22;54940;50.842;4.410;2022-08-21T07:43:05;24.70;90.50
68139;DHT22;54940;50.842;4.410;2022-08-21T07:45:31;25.20;90.70
68139;DHT22;54940;50.842;4.410;2022-08-21T07:47:57;25.50;88.20
68139;DHT22;54940;50.842;4.410;2022-08-21T07:50:23;25.40;88.90
68139;DHT22;54940;50.842;4.410;2022-08-21T07:52:49;24.90;89.90
68139;DHT22;54940;50.842;4.410;2022-08-21T07:55:21;25.10;90.40
68139;DHT22;54940;50.842;4.410;2022-08-21T07:57:47;25.00;90.20
68139;DHT22;54940;50.842;4.410;2022-08-21T08:00:20;24.70;91.20
68139;DHT22;54940;50.842;4.410;2022-08-21T08:02:48;24.50;90.90
68139;DHT22;54940;50.842;4.410;2022-08-21T08:05:20;24.40;90.30
68139;DHT22;54940;50.842;4.410;2022-08-21T08:07:46;24.40;91.70
68139;DHT22;54940;50.842;4.410;2022-08-21T08:10:13;24.30;90.90
68139;DHT22;54940;50.842;4.410;2022-08-21T08:12:40;24.00;90.70
68139;DHT22;54940;50.842;4.410;2022-08-21T08:15:09;23.70;92.00
68139;DHT22;54940;50.842;4.410;2022-08-21T08:17:34;23.50;91.70
68139;DHT22;54940;50.842;4.410;2022-08-21T08:20:01;23.60;92.00
68139;DHT22;54940;50.842;4.410;2022-08-21T08:22:28;23.70;92.00
68139;DHT22;54940;50.842;4.410;2022-08-21T08:24:54;23.80;91.10
68139;DHT22;54940;50.842;4.410;2022-08-21T08:27:21;23.80;91.90
68139;DHT22;54940;50.842;4.410;2022-08-21T08:29:47;23.80;91.60
68139;DHT22;54940;50.842;4.410;2022-08-21T08:32:13;23.40;91.40
68139;DHT22;54940;50.842;4.410;2022-08-21T08:34:39;23.50;91.40
68139;DHT22;54940;50.842;4.410;2022-08-21T08:37:07;23.60;91.80
68139;DHT22;54940;50.842;4.410;2022-08-21T08:39:33;23.70;91.10
68139;DHT22;54940;50.842;4.410;2022-08-21T08:42:09;24.10;92.80
68139;DHT22;54940;50.842;4.410;2022-08-21T08:44:37;24.40;91.80
68139;DHT22;54940;50.842;4.410;2022-08-21T08:47:04;24.50;90.30
68139;DHT22;54940;50.842;4.410;2022-08-21T08:49:37;24.70;91.80
68139;DHT22;54940;50.842;4.410;2022-08-21T08:54:55;24.90;91.20
68139;DHT22;54940;50.842;4.410;2022-08-21T08:57:23;25.10;90.70
68139;DHT22;54940;50.842;4.410;2022-08-21T08:59:58;25.30;91.60
68139;DHT22;54940;50.842;4.410;2022-08-21T09:02:25;25.80;89.70
68139;DHT22;54940;50.842;4.410;2022-08-21T09:04:53;25.80;86.80
68139;DHT22;54940;50.842;4.410;2022-08-21T09:07:36;25.70;90.50
68139;DHT22;54940;50.842;4.410;2022-08-21T09:27:18;25.90;88.30
68139;DHT22;54940;50.842;4.410;2022-08-21T09:29:47;26.20;82.80
68139;DHT22;54940;50.842;4.410;2022-08-21T09:32:22;26.30;84.80
68139;DHT22;54940;50.842;4.410;2022-08-21T09:35:19;26.40;88.20
68139;DHT22;54940;50.842;4.410;2022-08-21T09:37:58;26.50;86.40
68139;DHT22;54940;50.842;4.410;2022-08-21T09:43:00;26.70;89.60
68139;DHT22;54940;50.842;4.410;2022-08-21T09:45:27;27.10;87.70
68139;DHT22;54940;50.842;4.410;2022-08-21T09:47:52;27.00;80.40
68139;DHT22;54940;50.842;4.410;2022-08-21T09:50:25;26.50;80.10
68139;DHT22;54940;50.842;4.410;2022-08-21T09:52:58;26.00;83.00
68139;DHT22;54940;50.842;4.410;2022-08-21T09:58:35;25.70;85.00
68139;DHT22;54940;50.842;4.410;2022-08-21T10:01:04;25.40;84.40
68139;DHT22;54940;50.842;4.410;2022-08-21T10:03:31;25.30;84.30
68139;DHT22;54940;50.842;4.410;2022-08-21T10:05:58;25.20;85.60
68139;DHT22;54940;50.842;4.410;2022-08-21T10:08:27;25.10;82.80
68139;DHT22;54940;50.842;4.410;2022-08-21T10:11:09;24.90;86.00
68139;DHT22;54940;50.842;4.410;2022-08-21T10:19:36;24.70;88.00
68139;DHT22;54940;50.842;4.410;2022-08-21T10:22:11;25.10;91.00
68139;DHT22;54940;50.842;4.410;2022-08-21T10:27:32;26.20;85.80
68139;DHT22;54940;50.842;4.410;2022-08-21T10:30:10;26.30;83.00
68139;DHT22;54940;50.842;4.410;2022-08-21T10:41:03;26.00;83.60
68139;DHT22;54940;50.842;4.410;2022-08-21T10:43:57;26.00;89.00
68139;DHT22;54940;50.842;4.410;2022-08-21T11:00:23;26.70;84.90
68139;DHT22;54940;50.842;4.410;2022-08-21T11:03:10;26.80;86.70
68139;DHT22;54940;50.842;4.410;2022-08-21T11:05:52;26.60;83.80
68139;DHT22;54940;50.842;4.410;2022-08-21T11:08:31;26.50;84.70
68139;DHT22;54940;50.842;4.410;2022-08-21T11:11:12;26.30;79.60
68139;DHT22;54940;50.842;4.410;2022-08-21T11:16:16;26.60;80.10
68139;DHT22;54940;50.842;4.410;2022-08-21T11:18:50;26.80;82.70
68139;DHT22;54940;50.842;4.410;2022-08-21T11:24:46;27.40;79.30
68139;DHT22;54940;50.842;4.410;2022-08-21T11:27:25;27.70;78.30
68139;DHT22;54940;50.842;4.410;2022-08-21T11:29:59;28.30;79.80
68139;DHT22;54940;50.842;4.410;2022-08-21T11:40:46;29.70;73.80
68139;DHT22;54940;50.842;4.410;2022-08-21T11:46:19;29.10;74.60
68139;DHT22;54940;50.842;4.410;2022-08-21T11:51:38;28.50;74.10
68139;DHT22;54940;50.842;4.410;2022-08-21T11:54:08;28.00;77.60
68139;DHT22;54940;50.842;4.410;2022-08-21T11:56:46;27.70;76.80
68139;DHT22;54940;50.842;4.410;2022-08-21T11:59:41;27.90;74.40
68139;DHT22;54940;50.842;4.410;2022-08-21T12:02:18;27.60;76.90
68139;DHT22;54940;50.842;4.410;2022-08-21T12:04:49;27.40;79.20
68139;DHT22;54940;50.842;4.410;2022-08-21T12:07:38;27.60;78.70
68139;DHT22;54940;50.842;4.410;2022-08-21T12:10:09;28.20;78.80
68139;DHT22;54940;50.842;4.410;2022-08-21T12:12:38;28.70;79.00
68139;DHT22;54940;50.842;4.410;2022-08-21T12:15:25;29.00;73.80
68139;DHT22;54940;50.842;4.410;2022-08-21T12:17:55;28.70;71.30
68139;DHT22;54940;50.842;4.410;2022-08-21T12:22:54;28.40;73.20
68139;DHT22;54940;50.842;4.410;2022-08-21T12:25:22;29.00;74.30
68139;DHT22;54940;50.842;4.410;2022-08-21T12:27:53;29.50;70.80
68139;DHT22;54940;50.842;4.410;2022-08-21T12:30:38;30.20;69.40
68139;DHT22;54940;50.842;4.410;2022-08-21T12:33:17;29.90;69.70
68139;DHT22;54940;50.842;4.410;2022-08-21T12:35:44;30.50;67.00
68139;DHT22;54940;50.842;4.410;2022-08-21T12:38:32;30.60;64.50
68139;DHT22;54940;50.842;4.410;2022-08-21T12:41:12;30.50;66.70
68139;DHT22;54940;50.842;4.410;2022-08-21T12:43:41;30.40;65.80
68139;DHT22;54940;50.842;4.410;2022-08-21T12:46:18;30.90;66.60
68139;DHT22;54940;50.842;4.410;2022-08-21T12:48:51;31.50;66.50
68139;DHT22;54940;50.842;4.410;2022-08-21T12:51:28;31.70;64.10
68139;DHT22;54940;50.842;4.410;2022-08-21T12:53:59;31.80;59.60
68139;DHT22;54940;50.842;4.410;2022-08-21T12:56:31;31.40;62.50
68139;DHT22;54940;50.842;4.410;2022-08-21T12:59:01;30.90;64.20
68139;DHT22;54940;50.842;4.410;2022-08-21T13:01:35;29.90;66.10
68139;DHT22;54940;50.842;4.410;2022-08-21T13:04:05;29.00;66.90
68139;DHT22;54940;50.842;4.410;2022-08-21T13:06:38;28.70;68.50
68139;DHT22;54940;50.842;4.410;2022-08-21T13:09:11;28.60;67.50
68139;DHT22;54940;50.842;4.410;2022-08-21T13:11:40;28.50;67.90
68139;DHT22;54940;50.842;4.410;2022-08-21T13:14:14;28.30;70.00
68139;DHT22;54940;50.842;4.410;2022-08-21T13:16:42;28.10;70.00
68139;DHT22;54940;50.842;4.410;2022-08-21T13:19:11;27.90;71.60
68139;DHT22;54940;50.842;4.410;2022-08-21T13:21:43;27.80;71.60
68139;DHT22;54940;50.842;4.410;2022-08-21T13:24:18;27.80;71.80
68139;DHT22;54940;50.842;4.410;2022-08-21T13:26:45;27.70;72.10
68139;DHT22;54940;50.842;4.410;2022-08-21T13:29:14;27.70;70.80
68139;DHT22;54940;50.842;4.410;2022-08-21T13:31:46;27.50;71.10
68139;DHT22;54940;50.842;4.410;2022-08-21T13:34:12;27.50;72.30
68139;DHT22;54940;50.842;4.410;2022-08-21T13:36:41;27.50;73.80
68139;DHT22;54940;50.842;4.410;2022-08-21T13:39:11;27.40;73.80
68139;DHT22;54940;50.842;4.410;2022-08-21T13:41:40;27.60;73.50
68139;DHT22;54940;50.842;4.410;2022-08-21T13:46:49;26.80;73.70
68139;DHT22;54940;50.842;4.410;2022-08-21T13:49:17;26.80;73.70
68139;DHT22;54940;50.842;4.410;2022-08-21T13:51:44;26.60;75.30
68139;DHT22;54940;50.842;4.410;2022-08-21T13:54:37;26.50;73.80
68139;DHT22;54940;50.842;4.410;2022-08-21T13:57:04;26.50;74.80
68139;DHT22;54940;50.842;4.410;2022-08-21T13:59:35;26.30;76.80
68139;DHT22;54940;50.842;4.410;2022-08-21T14:02:21;26.30;73.70
68139;DHT22;54940;50.842;4.410;2022-08-21T14:04:55;26.30;76.80
68139;DHT22;54940;50.842;4.410;2022-08-21T14:07:29;26.30;75.10
68139;DHT22;54940;50.842;4.410;2022-08-21T14:09:56;26.50;77.60
68139;DHT22;54940;50.842;4.410;2022-08-21T14:12:29;26.40;74.60
68139;DHT22;54940;50.842;4.410;2022-08-21T14:14:57;26.30;75.60
68139;DHT22;54940;50.842;4.410;2022-08-21T14:17:42;26.20;77.50
68139;DHT22;54940;50.842;4.410;2022-08-21T14:20:32;26.10;76.70
68139;DHT22;54940;50.842;4.410;2022-08-21T14:22:56;26.10;76.50
68139;DHT22;54940;50.842;4.410;2022-08-21T14:30:40;25.60;78.60
68139;DHT22;54940;50.842;4.410;2022-08-21T14:33:11;25.40;79.40
68139;DHT22;54940;50.842;4.410;2022-08-21T14:35:37;25.30;77.00
68139;DHT22;54940;50.842;4.410;2022-08-21T14:38:12;25.40;77.30
68139;DHT22;54940;50.842;4.410;2022-08-21T14:40:38;25.50;77.90
68139;DHT22;54940;50.842;4.410;2022-08-21T14:43:04;25.50;78.80
68139;DHT22;54940;50.842;4.410;2022-08-21T14:45:31;25.60;78.10
68139;DHT22;54940;50.842;4.410;2022-08-21T14:47:58;25.80;76.70
68139;DHT22;54940;50.842;4.410;2022-08-21T14:50:24;25.90;77.40
68139;DHT22;54940;50.842;4.410;2022-08-21T14:52:49;25.70;77.20
68139;DHT22;54940;50.842;4.410;2022-08-21T14:55:16;26.00;78.20
68139;DHT22;54940;50.842;4.410;2022-08-21T14:57:44;26.50;75.20
68139;DHT22;54940;50.842;4.410;2022-08-21T15:00:13;26.90;75.10
68139;DHT22;54940;50.842;4.410;2022-08-21T15:02:39;27.40;75.80
68139;DHT22;54940;50.842;4.410;2022-08-21T15:05:05;28.10;74.60
68139;DHT22;54940;50.842;4.410;2022-08-21T15:07:30;28.80;69.60
68139;DHT22;54940;50.842;4.410;2022-08-21T15:09:56;28.90;68.90
68139;DHT22;54940;50.842;4.410;2022-08-21T15:12:23;29.10;70.10
68139;DHT22;54940;50.842;4.410;2022-08-21T15:14:49;28.90;68.70
68139;DHT22;54940;50.842;4.410;2022-08-21T15:17:14;28.70;68.10
68139;DHT22;54940;50.842;4.410;2022-08-21T15:19:40;28.40;69.90
68139;DHT22;54940;50.842;4.410;2022-08-21T15:22:06;28.20;71.10
68139;DHT22;54940;50.842;4.410;2022-08-21T15:24:32;27.80;70.80
68139;DHT22;54940;50.842;4.410;2022-08-21T15:27:00;27.60;71.30
68139;DHT22;54940;50.842;4.410;2022-08-21T15:29:26;27.50;71.10
68139;DHT22;54940;50.842;4.410;2022-08-21T15:32:15;27.30;71.00
68139;DHT22;54940;50.842;4.410;2022-08-21T15:34:41;26.80;70.30
68139;DHT22;54940;50.842;4.410;2022-08-21T15:37:07;26.50;72.80
68139;DHT22;54940;50.842;4.410;2022-08-21T15:39:34;26.50;74.30
68139;DHT22;54940;50.842;4.410;2022-08-21T15:42:01;26.50;73.30
68139;DHT22;54940;50.842;4.410;2022-08-21T15:44:27;26.10;73.70
68139;DHT22;54940;50.842;4.410;2022-08-21T15:46:53;26.10;74.30
68139;DHT22;54940;50.842;4.410;2022-08-21T15:49:19;26.00;75.60
68139;DHT22;54940;50.842;4.410;2022-08-21T15:51:44;25.80;77.90
68139;DHT22;54940;50.842;4.410;2022-08-21T15:54:10;25.80;79.00
68139;DHT22;54940;50.842;4.410;2022-08-21T15:56:38;26.00;74.50
68139;DHT22;54940;50.842;4.410;2022-08-21T15:59:07;25.80;75.00
68139;DHT22;54940;50.842;4.410;2022-08-21T16:01:34;25.70;76.00
68139;DHT22;54940;50.842;4.410;2022-08-21T16:04:02;25.70;76.90
68139;DHT22;54940;50.842;4.410;2022-08-21T16:06:29;25.70;76.80
68139;DHT22;54940;50.842;4.410;2022-08-21T16:08:54;25.70;75.10
68139;DHT22;54940;50.842;4.410;2022-08-21T16:11:20;25.70;77.10
68139;DHT22;54940;50.842;4.410;2022-08-21T16:13:47;25.90;79.50
68139;DHT22;54940;50.842;4.410;2022-08-21T16:16:16;26.00;79.40
68139;DHT22;54940;50.842;4.410;2022-08-21T16:18:44;25.70;79.20
68139;DHT22;54940;50.842;4.410;2022-08-21T16:21:10;25.60;74.30
68139;DHT22;54940;50.842;4.410;2022-08-21T16:23:36;25.70;76.10
68139;DHT22;54940;50.842;4.410;2022-08-21T16:26:04;25.40;74.00
68139;DHT22;54940;50.842;4.410;2022-08-21T16:28:31;25.30;75.60
68139;DHT22;54940;50.842;4.410;2022-08-21T16:30:58;25.00;76.70
68139;DHT22;54940;50.842;4.410;2022-08-21T16:33:42;24.90;77.00
68139;DHT22;54940;50.842;4.410;2022-08-21T16:36:09;24.70;75.90
68139;DHT22;54940;50.842;4.410;2022-08-21T16:38:36;24.70;79.10
68139;DHT22;54940;50.842;4.410;2022-08-21T16:41:10;24.80;79.50
68139;DHT22;54940;50.842;4.410;2022-08-21T16:43:38;24.60;78.40
68139;DHT22;54940;50.842;4.410;2022-08-21T16:46:05;24.70;79.20
68139;DHT22;54940;50.842;4.410;2022-08-21T16:48:31;24.80;80.30
68139;DHT22;54940;50.842;4.410;2022-08-21T16:50:57;25.00;79.60
68139;DHT22;54940;50.842;4.410;2022-08-21T16:53:23;25.10;79.60
68139;DHT22;54940;50.842;4.410;2022-08-21T16:55:50;24.90;79.40
68139;DHT22;54940;50.842;4.410;2022-08-21T16:58:25;24.80;81.30
68139;DHT22;54940;50.842;4.410;2022-08-21T17:00:51;25.00;80.20
68139;DHT22;54940;50.842;4.410;2022-08-21T17:03:19;25.10;82.70
68139;DHT22;54940;50.842;4.410;2022-08-21T17:05:46;25.10;80.90
68139;DHT22;54940;50.842;4.410;2022-08-21T17:08:12;25.20;80.00
68139;DHT22;54940;50.842;4.410;2022-08-21T17:10:43;25.10;80.60